createdAt,value
2018-05-29T00:01:11.223Z,9.10
2018-05-29T00:02:43.031Z,12.50
2018-05-29T00:04:14.845Z,13.90
2018-05-29T00:05:46.650Z,14.40
2018-05-29T00:07:18.462Z,11.40
2018-05-29T00:08:50.272Z,14.30
2018-05-29T00:10:22.086Z,14.20
2018-05-29T00:11:53.891Z,16.30
2018-05-29T00:13:25.702Z,13.20
2018-05-29T00:14:57.510Z,16.00
2018-05-29T00:16:29.328Z,14.80
2018-05-29T00:18:01.682Z,12.10
2018-05-29T00:19:32.940Z,14.50
2018-05-29T00:21:04.752Z,16.20
2018-05-29T00:22:36.562Z,17.50
2018-05-29T00:24:08.371Z,15.20
2018-05-29T00:25:40.182Z,20.60
2018-05-29T00:27:11.991Z,14.80
2018-05-29T00:28:43.804Z,18.00
2018-05-29T00:30:15.611Z,19.70
2018-05-29T00:31:47.420Z,17.00
2018-05-29T00:33:19.229Z,17.10
2018-05-29T00:34:51.039Z,17.30
2018-05-29T00:36:22.953Z,17.60
2018-05-29T00:37:54.658Z,16.20
2018-05-29T00:39:26.469Z,19.90
2018-05-29T00:40:58.279Z,24.50
2018-05-29T00:42:30.092Z,20.70
2018-05-29T00:44:01.905Z,20.40
2018-05-29T00:45:33.708Z,23.80
2018-05-29T00:47:05.518Z,22.30
2018-05-29T00:48:37.427Z,20.90
2018-05-29T00:50:09.136Z,22.60
2018-05-29T00:51:40.948Z,20.00
2018-05-29T00:53:12.756Z,20.80
2018-05-29T00:54:44.666Z,18.60
2018-05-29T00:56:16.376Z,21.10
2018-05-29T00:57:48.186Z,26.90
2018-05-29T00:59:19.999Z,23.50
2018-05-29T01:00:51.806Z,24.60
2018-05-29T01:02:23.615Z,26.50
2018-05-29T01:03:55.424Z,23.90
2018-05-29T01:05:27.234Z,29.40
2018-05-29T01:06:59.043Z,28.30
2018-05-29T01:08:30.854Z,26.40
2018-05-29T01:10:02.666Z,27.90
2018-05-29T01:11:34.473Z,24.50
2018-05-29T01:13:06.535Z,24.20
2018-05-29T01:14:38.091Z,26.80
2018-05-29T01:16:09.902Z,23.40
2018-05-29T01:17:41.712Z,27.90
2018-05-29T01:19:13.522Z,28.10
2018-05-29T01:20:45.331Z,25.10
2018-05-29T01:22:17.143Z,22.90
2018-05-29T01:23:48.950Z,25.00
2018-05-29T01:25:20.759Z,25.90
2018-05-29T01:26:52.569Z,25.90
2018-05-29T01:28:24.378Z,25.60
2018-05-29T01:29:56.187Z,26.90
2018-05-29T01:31:28.097Z,21.80
2018-05-29T01:32:59.807Z,25.20
2018-05-29T01:34:31.617Z,21.30
2018-05-29T01:36:03.426Z,23.60
2018-05-29T01:37:35.239Z,22.30
2018-05-29T01:39:07.045Z,23.80
2018-05-29T01:40:38.855Z,22.10
2018-05-29T01:42:10.666Z,17.30
2018-05-29T01:43:42.573Z,15.50
2018-05-29T01:45:14.282Z,14.10
2018-05-29T01:46:46.092Z,21.10
2018-05-29T01:48:17.902Z,19.20
2018-05-29T01:49:49.815Z,17.20
2018-05-29T01:51:21.524Z,15.40
2018-05-29T01:52:53.330Z,16.90
2018-05-29T01:54:25.140Z,18.10
2018-05-29T01:55:56.949Z,13.70
2018-05-29T01:57:28.759Z,17.40
2018-05-29T01:59:00.568Z,14.10
2018-05-29T02:00:32.378Z,14.60
2018-05-29T02:02:04.188Z,12.40
2018-05-29T02:03:35.998Z,13.00
2018-05-29T02:05:07.807Z,12.70
2018-05-29T02:06:39.616Z,15.70
2018-05-29T02:08:11.525Z,13.00
2018-05-29T02:09:43.234Z,12.70
2018-05-29T02:11:15.044Z,11.10
2018-05-29T02:12:46.853Z,12.70
2018-05-29T02:14:18.762Z,12.80
2018-05-29T02:15:50.472Z,11.30
2018-05-29T02:17:22.282Z,10.90
2018-05-29T02:18:54.091Z,12.70
2018-05-29T02:20:25.900Z,13.30
2018-05-29T02:21:57.710Z,12.60
2018-05-29T02:23:29.520Z,15.20
2018-05-29T02:25:01.328Z,13.50
2018-05-29T02:26:33.243Z,12.90
2018-05-29T02:28:04.946Z,13.70
2018-05-29T02:29:36.756Z,13.60
2018-05-29T02:31:08.565Z,12.50
2018-05-29T02:32:40.375Z,13.80
2018-05-29T02:34:12.187Z,12.30
2018-05-29T02:35:43.994Z,13.10
2018-05-29T02:37:15.802Z,13.30
2018-05-29T02:38:47.617Z,12.10
2018-05-29T02:40:19.421Z,12.20
2018-05-29T02:41:51.230Z,12.50
2018-05-29T02:43:23.039Z,12.00
2018-05-29T02:44:54.949Z,12.10
2018-05-29T02:46:26.657Z,12.30
2018-05-29T02:47:58.470Z,13.20
2018-05-29T02:49:30.280Z,12.80
2018-05-29T02:51:02.084Z,14.60
2018-05-29T02:52:33.893Z,14.60
2018-05-29T02:54:05.703Z,13.50
2018-05-29T02:55:37.512Z,15.80
2018-05-29T02:57:09.421Z,14.30
2018-05-29T02:58:41.130Z,15.80
2018-05-29T03:00:12.939Z,14.70
2018-05-29T03:01:44.748Z,17.90
2018-05-29T03:03:16.708Z,16.90
2018-05-29T03:04:48.365Z,18.00
2018-05-29T03:06:20.175Z,16.80
2018-05-29T03:07:51.984Z,19.80
2018-05-29T03:09:23.794Z,19.60
2018-05-29T03:10:55.602Z,19.90
2018-05-29T03:12:27.411Z,19.40
2018-05-29T03:13:59.224Z,18.30
2018-05-29T03:15:31.029Z,20.00
2018-05-29T03:17:02.838Z,17.90
2018-05-29T03:18:34.648Z,22.50
2018-05-29T03:20:06.457Z,20.00
2018-05-29T03:21:38.365Z,18.30
2018-05-29T03:23:10.075Z,20.40
2018-05-29T03:24:41.883Z,20.10
2018-05-29T03:26:13.692Z,18.90
2018-05-29T03:27:45.652Z,17.70
2018-05-29T03:29:17.310Z,19.80
2018-05-29T03:30:49.120Z,20.10
2018-05-29T03:32:20.932Z,20.20
2018-05-29T03:33:52.737Z,20.00
2018-05-29T03:35:24.546Z,19.10
2018-05-29T03:36:56.355Z,18.40
2018-05-29T03:38:28.164Z,17.50
2018-05-29T03:40:00.076Z,18.40
2018-05-29T03:41:31.782Z,18.70
2018-05-29T03:43:03.591Z,18.50
2018-05-29T03:44:35.399Z,19.40
2018-05-29T03:46:07.208Z,20.40
2018-05-29T03:47:39.018Z,19.90
2018-05-29T03:49:10.828Z,19.40
2018-05-29T03:50:42.636Z,20.50
2018-05-29T03:52:14.699Z,20.00
2018-05-29T03:53:46.253Z,17.40
2018-05-29T03:55:18.062Z,19.30
2018-05-29T03:56:49.871Z,19.10
2018-05-29T03:58:21.929Z,19.00
2018-05-29T03:59:53.488Z,19.50
2018-05-29T04:01:25.298Z,19.80
2018-05-29T04:02:57.110Z,23.90
2018-05-29T04:04:28.915Z,20.00
2018-05-29T04:06:00.725Z,18.60
2018-05-29T04:07:32.533Z,20.00
2018-05-29T04:09:04.342Z,19.20
2018-05-29T04:10:36.151Z,18.80
2018-05-29T04:12:07.959Z,18.40
2018-05-29T04:13:39.798Z,16.20
2018-05-29T04:15:11.577Z,18.00
2018-05-29T04:16:43.488Z,19.10
2018-05-29T04:18:15.195Z,15.10
2018-05-29T04:19:47.004Z,18.90
2018-05-29T04:21:18.815Z,17.70
2018-05-29T04:22:50.873Z,17.60
2018-05-29T04:24:22.431Z,18.80
2018-05-29T04:25:54.242Z,21.00
2018-05-29T04:27:26.048Z,14.90
2018-05-29T04:28:57.962Z,14.70
2018-05-29T04:30:29.666Z,15.20
2018-05-29T04:32:01.503Z,15.80
2018-05-29T04:33:33.283Z,21.40
2018-05-29T04:35:05.343Z,16.80
2018-05-29T04:36:36.901Z,16.20
2018-05-29T04:38:08.711Z,18.00
2018-05-29T04:39:40.537Z,16.60
2018-05-29T04:41:12.328Z,16.40
2018-05-29T04:42:44.136Z,16.80
2018-05-29T04:44:15.945Z,16.30
2018-05-29T04:45:47.754Z,15.60
2018-05-29T04:47:19.563Z,17.90
2018-05-29T04:48:51.371Z,17.50
2018-05-29T04:50:23.186Z,16.40
2018-05-29T04:51:54.996Z,18.70
2018-05-29T04:53:27.149Z,20.40
2018-05-29T04:54:58.607Z,17.10
2018-05-29T04:56:30.424Z,18.90
2018-05-29T04:58:02.224Z,19.50
2018-05-29T04:59:34.038Z,21.40
2018-05-29T05:01:05.843Z,17.30
2018-05-29T05:02:37.715Z,25.10
2018-05-29T05:04:09.460Z,19.60
2018-05-29T05:05:41.418Z,20.10
2018-05-29T05:07:13.077Z,23.00
2018-05-29T05:08:44.919Z,20.20
2018-05-29T05:10:16.695Z,19.50
2018-05-29T05:11:48.607Z,20.10
2018-05-29T05:13:20.313Z,20.30
2018-05-29T05:14:52.122Z,20.50
2018-05-29T05:16:23.930Z,21.80
2018-05-29T05:17:55.739Z,19.50
2018-05-29T05:19:27.548Z,20.90
2018-05-29T05:20:59.356Z,20.20
2018-05-29T05:22:31.165Z,21.00
2018-05-29T05:24:02.973Z,20.80
2018-05-29T05:25:34.782Z,21.30
2018-05-29T05:27:06.592Z,22.70
2018-05-29T05:28:38.402Z,20.10
2018-05-29T05:30:10.314Z,18.80
2018-05-29T05:31:42.017Z,21.60
2018-05-29T05:33:13.825Z,21.50
2018-05-29T05:34:45.635Z,22.70
2018-05-29T05:36:17.443Z,24.00
2018-05-29T05:37:49.253Z,22.90
2018-05-29T05:39:21.062Z,21.60
2018-05-29T05:40:52.868Z,22.50
2018-05-29T05:42:24.677Z,25.10
2018-05-29T05:43:56.515Z,23.30
2018-05-29T05:45:28.294Z,24.70
2018-05-29T05:47:00.106Z,24.20
2018-05-29T05:48:32.012Z,21.20
2018-05-29T05:50:03.728Z,25.40
2018-05-29T05:51:35.531Z,22.50
2018-05-29T05:53:07.360Z,24.30
2018-05-29T05:54:39.397Z,25.40
2018-05-29T05:56:10.955Z,23.40
2018-05-29T05:57:42.763Z,21.20
2018-05-29T05:59:14.575Z,22.70
2018-05-29T06:00:46.381Z,24.10
2018-05-29T06:02:18.190Z,23.80
2018-05-29T06:03:49.998Z,23.60
2018-05-29T06:05:21.807Z,27.90
2018-05-29T06:06:53.715Z,25.90
2018-05-29T06:08:25.427Z,24.70
2018-05-29T06:09:57.236Z,27.60
2018-05-29T06:11:29.044Z,26.40
2018-05-29T06:13:00.855Z,28.70
2018-05-29T06:14:32.664Z,29.20
2018-05-29T06:16:04.471Z,27.20
2018-05-29T06:17:36.278Z,27.70
2018-05-29T06:19:08.089Z,28.10
2018-05-29T06:20:39.896Z,23.90
2018-05-29T06:22:11.706Z,29.00
2018-05-29T06:23:43.512Z,27.50
2018-05-29T06:25:15.676Z,27.60
2018-05-29T06:26:47.131Z,26.10
2018-05-29T06:28:18.939Z,28.00
2018-05-29T06:29:50.748Z,25.30
2018-05-29T06:31:22.556Z,23.50
2018-05-29T06:32:54.369Z,27.40
2018-05-29T06:34:26.174Z,26.20
2018-05-29T06:35:57.981Z,26.10
2018-05-29T06:37:29.789Z,28.50
2018-05-29T06:39:01.600Z,26.40
2018-05-29T06:40:33.407Z,25.90
2018-05-29T06:42:05.217Z,25.50
2018-05-29T06:43:37.125Z,28.10
2018-05-29T06:45:08.867Z,26.00
2018-05-29T06:46:40.643Z,27.50
2018-05-29T06:48:12.451Z,26.50
2018-05-29T06:49:44.411Z,28.40
2018-05-29T06:51:16.069Z,30.30
2018-05-29T06:52:47.877Z,33.90
2018-05-29T06:54:19.687Z,32.50
2018-05-29T06:55:51.495Z,30.30
2018-05-29T06:57:23.303Z,32.10
2018-05-29T06:58:55.112Z,31.20
2018-05-29T07:00:26.921Z,33.10
2018-05-29T07:01:58.980Z,32.20
2018-05-29T07:03:30.537Z,34.40
2018-05-29T07:05:02.347Z,33.10
2018-05-29T07:06:34.154Z,32.50
2018-05-29T07:08:05.964Z,36.50
2018-05-29T07:09:37.771Z,37.80
2018-05-29T07:11:09.577Z,39.60
2018-05-29T07:12:41.386Z,36.10
2018-05-29T07:14:13.195Z,38.10
2018-05-29T07:15:45.003Z,38.60
2018-05-29T07:17:16.811Z,40.00
2018-05-29T07:18:48.620Z,37.40
2018-05-29T07:20:20.779Z,40.40
2018-05-29T07:21:52.236Z,44.90
2018-05-29T07:23:24.045Z,46.00
2018-05-29T07:24:55.857Z,43.70
2018-05-29T07:26:27.913Z,41.40
2018-05-29T07:27:59.470Z,43.60
2018-05-29T07:29:31.279Z,41.60
2018-05-29T07:31:03.088Z,39.60
2018-05-29T07:32:34.995Z,41.70
2018-05-29T07:34:06.704Z,40.80
2018-05-29T07:35:38.512Z,41.00
2018-05-29T07:37:10.320Z,39.00
2018-05-29T07:38:42.228Z,40.00
2018-05-29T07:40:13.937Z,41.60
2018-05-29T07:41:45.747Z,43.50
2018-05-29T07:43:17.554Z,47.70
2018-05-29T07:44:49.362Z,47.90
2018-05-29T07:46:21.170Z,48.00
2018-05-29T07:47:52.979Z,47.10
2018-05-29T07:49:24.792Z,50.70
2018-05-29T07:50:56.597Z,47.30
2018-05-29T07:52:28.405Z,49.50
2018-05-29T07:54:00.213Z,47.60
2018-05-29T07:55:32.021Z,56.70
2018-05-29T07:57:04.180Z,50.40
2018-05-29T07:58:35.640Z,53.20
2018-05-29T08:00:07.452Z,44.80
2018-05-29T08:01:39.255Z,51.10
2018-05-29T08:03:11.064Z,52.80
2018-05-29T08:04:42.872Z,52.80
2018-05-29T08:06:14.682Z,47.40
2018-05-29T08:07:46.489Z,54.50
2018-05-29T08:09:18.448Z,56.90
2018-05-29T08:10:50.107Z,56.30
2018-05-29T08:12:21.915Z,48.70
2018-05-29T08:13:53.726Z,50.90
2018-05-29T08:15:25.632Z,49.30
2018-05-29T08:16:57.364Z,59.40
2018-05-29T08:18:29.174Z,48.50
2018-05-29T08:20:00.957Z,49.20
2018-05-29T08:21:32.787Z,52.70
2018-05-29T08:23:04.591Z,56.40
2018-05-29T08:24:36.449Z,54.10
2018-05-29T08:26:08.192Z,56.40
2018-05-29T08:27:40.251Z,54.60
2018-05-29T08:29:11.808Z,62.00
2018-05-29T08:30:43.638Z,58.90
2018-05-29T08:32:15.425Z,57.40
2018-05-29T08:33:47.484Z,53.50
2018-05-29T08:35:19.042Z,57.60
2018-05-29T08:36:50.850Z,67.70
2018-05-29T08:38:22.659Z,62.10
2018-05-29T08:39:54.571Z,57.10
2018-05-29T08:41:26.276Z,59.60
2018-05-29T08:42:58.083Z,56.80
2018-05-29T08:44:29.892Z,55.60
2018-05-29T08:46:01.725Z,68.20
2018-05-29T08:47:33.537Z,59.60
2018-05-29T08:49:05.323Z,71.10
2018-05-29T08:50:37.126Z,59.30
2018-05-29T08:52:09.034Z,63.60
2018-05-29T08:53:40.812Z,71.70
2018-05-29T08:55:12.621Z,70.10
2018-05-29T08:56:44.433Z,60.50
2018-05-29T08:58:16.337Z,69.70
2018-05-29T08:59:48.048Z,61.80
2018-05-29T09:01:19.853Z,65.00
2018-05-29T09:02:51.593Z,68.90
2018-05-29T09:04:23.403Z,64.00
2018-05-29T09:05:55.208Z,61.90
2018-05-29T09:07:27.016Z,59.50
2018-05-29T09:08:58.828Z,60.20
2018-05-29T09:10:30.733Z,62.60
2018-05-29T09:12:02.441Z,65.60
2018-05-29T09:13:34.249Z,60.60
2018-05-29T09:15:06.057Z,62.30
2018-05-29T09:16:37.966Z,62.30
2018-05-29T09:18:09.675Z,67.20
2018-05-29T09:19:41.481Z,66.20
2018-05-29T09:21:13.292Z,65.40
2018-05-29T09:22:45.097Z,67.00
2018-05-29T09:24:16.908Z,61.20
2018-05-29T09:25:48.713Z,60.10
2018-05-29T09:27:20.524Z,67.80
2018-05-29T09:28:52.429Z,69.60
2018-05-29T09:30:24.139Z,66.00
2018-05-29T09:31:56.004Z,61.40
2018-05-29T09:33:27.755Z,56.50
2018-05-29T09:34:59.562Z,54.20
2018-05-29T09:38:03.180Z,53.70
2018-05-29T09:39:34.986Z,56.30
2018-05-29T09:41:06.809Z,55.20
2018-05-29T09:42:38.604Z,58.50
2018-05-29T09:44:10.412Z,56.00
2018-05-29T09:45:42.244Z,58.50
2018-05-29T09:47:14.229Z,56.30
2018-05-29T09:48:45.836Z,67.70
2018-05-29T09:50:17.644Z,60.10
2018-05-29T09:51:49.453Z,67.70
2018-05-29T09:53:21.264Z,59.60
2018-05-29T09:54:53.072Z,55.90
2018-05-29T09:56:24.878Z,64.00
2018-05-29T09:57:56.686Z,58.50
2018-05-29T09:59:28.744Z,63.50
2018-05-29T10:01:00.304Z,65.70
2018-05-29T10:02:32.111Z,66.90
2018-05-29T10:04:03.920Z,64.00
2018-05-29T10:05:35.828Z,62.90
2018-05-29T10:07:07.587Z,69.70
2018-05-29T10:08:39.346Z,61.30
2018-05-29T10:10:11.157Z,61.10
2018-05-29T10:11:42.965Z,62.30
2018-05-29T10:13:14.840Z,53.10
2018-05-29T10:14:46.882Z,54.20
2018-05-29T10:16:18.387Z,57.70
2018-05-29T10:17:50.295Z,53.60
2018-05-29T10:19:22.063Z,51.10
2018-05-29T10:20:53.813Z,55.60
2018-05-29T10:22:25.621Z,51.20
2018-05-29T10:23:57.529Z,49.60
2018-05-29T10:25:29.237Z,52.20
2018-05-29T10:27:01.046Z,53.40
2018-05-29T10:30:04.665Z,53.90
2018-05-29T10:31:36.473Z,47.70
2018-05-29T10:33:08.281Z,43.10
2018-05-29T10:34:40.091Z,45.10
2018-05-29T10:36:11.900Z,44.80
2018-05-29T10:37:43.718Z,45.00
2018-05-29T10:39:15.520Z,43.70
2018-05-29T10:40:47.530Z,41.40
2018-05-29T10:43:51.249Z,38.30
2018-05-29T10:45:23.346Z,42.20
2018-05-29T10:46:54.565Z,37.80
2018-05-29T10:48:26.383Z,38.30
2018-05-29T10:49:58.185Z,43.30
2018-05-29T10:51:29.995Z,38.50
2018-05-29T10:53:01.807Z,34.40
2018-05-29T10:56:05.424Z,32.30
2018-05-29T11:00:41.055Z,29.00
2018-05-29T11:02:12.765Z,30.10
2018-05-29T11:03:44.779Z,30.70
2018-05-29T11:05:16.284Z,28.90
2018-05-29T11:06:48.141Z,31.90
2018-05-29T11:08:19.909Z,28.00
2018-05-29T11:09:51.718Z,27.20
2018-05-29T11:12:55.424Z,31.20
2018-05-29T11:14:27.154Z,26.50
2018-05-29T11:15:58.967Z,27.50
2018-05-29T11:19:03.117Z,23.60
2018-05-29T11:20:34.815Z,25.80
2018-05-29T11:22:06.219Z,24.30
2018-05-29T11:23:38.065Z,24.30
2018-05-29T11:25:09.844Z,29.00
2018-05-29T11:26:41.724Z,25.20
2018-05-29T11:28:13.675Z,21.00
2018-05-29T11:29:45.303Z,23.00
2018-05-29T11:31:17.166Z,23.20
2018-05-29T11:35:52.644Z,21.60
2018-05-29T11:37:24.359Z,20.80
2018-05-29T11:38:56.172Z,20.20
2018-05-29T11:40:28.189Z,20.40
2018-05-29T11:41:59.848Z,20.80
2018-05-29T11:43:31.634Z,22.10
2018-05-29T11:46:35.247Z,21.80
2018-05-29T11:48:07.062Z,21.60
2018-05-29T11:49:39.640Z,19.90
2018-05-29T11:51:10.692Z,21.10
2018-05-29T11:52:42.556Z,21.10
2018-05-29T11:54:14.423Z,20.10
2018-05-29T11:55:46.139Z,21.70
2018-05-29T11:57:17.955Z,20.00
2018-05-29T11:58:49.770Z,21.80
2018-05-29T12:00:21.587Z,22.10
2018-05-29T12:03:25.425Z,20.70
2018-05-29T12:04:57.239Z,19.40
2018-05-29T12:06:28.856Z,19.10
2018-05-29T12:08:00.750Z,18.50
2018-05-29T12:09:32.485Z,19.10
2018-05-29T12:12:36.218Z,18.00
2018-05-29T12:14:07.932Z,19.50
2018-05-29T12:15:39.750Z,21.50
2018-05-29T12:17:11.566Z,19.80
2018-05-29T12:18:43.586Z,20.10
2018-05-29T12:20:15.402Z,19.70
2018-05-29T12:23:19.041Z,20.20
2018-05-29T12:24:50.650Z,18.90
2018-05-29T12:26:22.468Z,19.00
2018-05-29T12:27:54.286Z,18.20
2018-05-29T12:29:26.111Z,19.40
2018-05-29T12:30:58.048Z,19.80
2018-05-29T12:32:29.755Z,22.60
2018-05-29T12:34:01.558Z,18.40
2018-05-29T12:35:33.417Z,19.70
2018-05-29T12:37:05.203Z,20.70
2018-05-29T12:38:37.015Z,21.60
2018-05-29T12:41:40.954Z,16.30
2018-05-29T12:43:13.208Z,14.80
2018-05-29T12:44:44.288Z,15.20
2018-05-29T12:46:18.285Z,16.80
2018-05-29T12:47:48.227Z,17.10
2018-05-29T12:49:19.885Z,16.70
2018-05-29T12:52:23.379Z,17.20
2018-05-29T12:53:55.812Z,17.90
2018-05-29T12:55:27.018Z,18.40
2018-05-29T12:58:30.655Z,14.90
2018-05-29T13:00:02.477Z,14.90
2018-05-29T13:03:06.192Z,15.40
2018-05-29T13:04:38.238Z,15.90
2018-05-29T13:06:09.750Z,15.20
2018-05-29T13:07:41.873Z,15.20
2018-05-29T13:09:13.690Z,17.10
2018-05-29T13:12:17.024Z,15.60
2018-05-29T13:13:48.844Z,15.20
2018-05-29T13:15:20.662Z,14.20
2018-05-29T13:16:52.786Z,15.00
2018-05-29T13:18:24.300Z,14.50
2018-05-29T13:19:56.424Z,15.00
2018-05-29T13:21:27.962Z,14.70
2018-05-29T13:23:00.100Z,17.60
2018-05-29T13:24:31.579Z,16.00
2018-05-29T13:26:03.599Z,16.30
2018-05-29T13:27:35.620Z,15.70
2018-05-29T13:29:07.037Z,15.80
2018-05-29T13:32:10.676Z,15.80
2018-05-29T13:33:42.495Z,13.60
2018-05-29T13:35:14.354Z,12.20
2018-05-29T13:36:46.137Z,12.60
2018-05-29T13:39:50.299Z,12.00
2018-05-29T13:41:21.597Z,12.00
2018-05-29T13:42:53.417Z,12.10
2018-05-29T13:44:25.242Z,12.10
2018-05-29T13:47:29.184Z,12.90
2018-05-29T13:49:00.901Z,11.60
2018-05-29T13:50:32.529Z,11.70
2018-05-29T13:52:04.867Z,11.00
2018-05-29T13:53:36.173Z,10.00
2018-05-29T13:55:07.983Z,10.60
2018-05-29T13:56:40.325Z,9.70
2018-05-29T13:58:11.621Z,9.90
2018-05-29T13:59:43.447Z,9.90
2018-05-29T14:01:15.791Z,9.70
2018-05-29T14:02:47.392Z,9.60
2018-05-29T14:05:50.829Z,9.90
2018-05-29T14:07:22.598Z,8.30
2018-05-29T14:08:54.397Z,7.90
2018-05-29T14:10:26.208Z,8.60
2018-05-29T14:13:29.831Z,9.60
2018-05-29T14:15:01.711Z,8.70
2018-05-29T14:16:34.198Z,9.30
2018-05-29T14:18:05.293Z,8.00
2018-05-29T14:19:37.116Z,9.50
2018-05-29T14:21:09.139Z,11.10
2018-05-29T14:22:40.966Z,10.10
2018-05-29T14:24:12.579Z,8.30
2018-05-29T14:25:45.026Z,7.10
2018-05-29T14:27:16.429Z,8.50
2018-05-29T14:28:48.058Z,7.60
2018-05-29T14:30:20.068Z,9.70
2018-05-29T14:31:52.415Z,8.90
2018-05-29T14:34:55.330Z,8.10
2018-05-29T14:36:27.165Z,7.40
2018-05-29T14:37:59.581Z,6.40
2018-05-29T14:42:34.961Z,5.70
2018-05-29T14:45:38.383Z,6.50
2018-05-29T14:47:09.901Z,6.10
2018-05-29T14:48:41.731Z,7.60
2018-05-29T14:50:13.545Z,7.30
2018-05-29T14:51:46.299Z,7.60
2018-05-29T14:53:17.392Z,6.60
2018-05-29T14:57:52.653Z,7.60
2018-05-29T14:59:24.627Z,6.80
2018-05-29T15:00:56.600Z,7.70
2018-05-29T15:02:28.119Z,6.80
2018-05-29T15:07:03.891Z,7.40
2018-05-29T15:08:35.951Z,8.80
2018-05-29T15:10:07.752Z,7.70
2018-05-29T15:11:39.058Z,7.40
2018-05-29T15:13:10.874Z,7.60
2018-05-29T15:14:42.704Z,7.40
2018-05-29T15:16:14.822Z,7.70
2018-05-29T15:19:18.168Z,8.30
2018-05-29T15:20:50.509Z,7.80
2018-05-29T15:22:21.807Z,8.70
2018-05-29T15:23:53.633Z,8.80
2018-05-29T15:25:25.553Z,9.10
2018-05-29T15:26:57.276Z,7.50
2018-05-29T15:28:29.099Z,8.30
2018-05-29T15:30:01.131Z,7.00
2018-05-29T15:31:32.951Z,6.70
2018-05-29T15:34:36.687Z,7.90
2018-05-29T15:36:08.213Z,7.00
2018-05-29T15:37:40.036Z,7.00
2018-05-29T15:39:12.068Z,7.10
2018-05-29T15:40:43.765Z,6.30
2018-05-29T15:42:15.708Z,8.30
2018-05-29T15:43:47.479Z,6.70
2018-05-29T15:45:19.151Z,7.20
2018-05-29T15:46:50.972Z,6.20
2018-05-29T15:48:22.999Z,11.40
2018-05-29T15:49:55.144Z,5.20
2018-05-29T15:51:26.467Z,6.50
2018-05-29T15:52:58.472Z,6.80
2018-05-29T15:54:30.394Z,6.50
2018-05-29T15:56:01.914Z,7.10
2018-05-29T15:59:05.563Z,8.40
2018-05-29T16:00:37.386Z,7.50
2018-05-29T16:03:42.062Z,9.20
2018-05-29T16:06:44.983Z,7.10
2018-05-29T16:08:16.505Z,8.90
2018-05-29T16:09:48.329Z,8.10
2018-05-29T16:12:52.050Z,7.20
2018-05-29T16:14:23.793Z,6.70
2018-05-29T16:15:55.921Z,7.40
2018-05-29T16:17:27.444Z,8.30
2018-05-29T16:18:59.464Z,9.90
2018-05-29T16:20:31.086Z,12.00
2018-05-29T16:22:03.012Z,10.80
2018-05-29T16:23:34.781Z,17.50
2018-05-29T16:25:07.489Z,7.70
2018-05-29T16:26:39.165Z,5.80
2018-05-29T16:28:10.207Z,6.40
2018-05-29T16:29:42.706Z,5.80
2018-05-29T16:31:14.052Z,5.70
2018-05-29T16:34:18.102Z,5.40
2018-05-29T16:35:49.343Z,4.90
2018-05-29T16:37:21.171Z,5.00
2018-05-29T16:41:56.915Z,13.20
2018-05-29T16:43:28.437Z,15.80
2018-05-29T16:45:00.257Z,11.30
2018-05-29T16:46:32.161Z,9.30
2018-05-29T16:48:03.904Z,10.00
2018-05-29T16:49:36.031Z,16.30
2018-05-29T16:51:07.853Z,18.50
2018-05-29T16:52:39.371Z,27.00
2018-05-29T16:54:11.400Z,20.70
2018-05-29T16:55:43.018Z,27.60
2018-05-29T16:57:15.369Z,21.80
2018-05-29T16:58:46.665Z,5.70
2018-05-29T17:00:18.588Z,5.20
2018-05-29T17:01:50.403Z,4.90
2018-05-29T17:03:22.439Z,4.80
2018-05-29T17:04:53.963Z,4.60
2018-05-29T17:06:25.781Z,4.30
2018-05-29T17:07:57.604Z,5.70
2018-05-29T17:11:01.254Z,7.80
2018-05-29T17:12:33.079Z,6.80
2018-05-29T17:14:04.900Z,9.90
2018-05-29T17:15:36.724Z,5.40
2018-05-29T17:17:08.850Z,3.90
2018-05-29T17:18:40.996Z,5.30
2018-05-29T17:20:12.203Z,5.10
2018-05-29T17:21:44.019Z,5.40
2018-05-29T17:23:19.231Z,6.30
2018-05-29T17:24:47.666Z,6.20
2018-05-29T17:26:19.491Z,6.60
2018-05-29T17:27:51.315Z,6.50
2018-05-29T17:29:23.661Z,5.80
2018-05-29T17:30:54.969Z,6.00
2018-05-29T17:32:27.090Z,6.00
2018-05-29T17:33:58.606Z,5.90
2018-05-29T17:35:30.430Z,6.10
2018-05-29T17:37:02.354Z,5.80
2018-05-29T17:38:34.083Z,5.30
2018-05-29T17:40:07.187Z,5.90
2018-05-29T17:41:38.012Z,5.70
2018-05-29T17:43:10.069Z,5.70
2018-05-29T17:44:41.839Z,6.20
2018-05-29T17:46:13.203Z,5.70
2018-05-29T17:47:45.088Z,6.30
2018-05-29T17:49:17.363Z,5.20
2018-05-29T17:52:20.585Z,7.00
2018-05-29T17:53:53.145Z,7.50
2018-05-29T17:55:24.625Z,7.20
2018-05-29T17:56:56.155Z,7.60
2018-05-29T17:58:28.116Z,7.00
2018-05-29T17:59:59.642Z,7.60
2018-05-29T18:03:03.243Z,5.50
2018-05-29T18:06:08.815Z,6.30
2018-05-29T18:09:10.535Z,8.70
2018-05-29T18:10:42.353Z,8.10
2018-05-29T18:12:14.178Z,6.20
2018-05-29T18:13:45.998Z,6.20
2018-05-29T18:15:18.244Z,5.40
2018-05-29T18:16:50.220Z,6.70
2018-05-29T18:18:21.667Z,6.80
2018-05-29T18:19:53.490Z,6.00
2018-05-29T18:21:25.135Z,7.00
2018-05-29T18:22:57.435Z,6.00
2018-05-29T18:24:28.862Z,5.80
2018-05-29T18:26:00.593Z,5.80
2018-05-29T18:27:32.837Z,6.50
2018-05-29T18:29:04.581Z,5.40
2018-05-29T18:30:36.040Z,6.40
2018-05-29T18:33:39.879Z,6.20
2018-05-29T18:35:11.508Z,6.40
2018-05-29T18:36:43.431Z,6.10
2018-05-29T18:38:15.152Z,6.80
2018-05-29T18:41:18.794Z,6.50
2018-05-29T18:42:50.616Z,5.90
2018-05-29T18:44:22.466Z,7.10
2018-05-29T18:45:54.275Z,5.90
2018-05-29T18:47:26.077Z,6.10
2018-05-29T18:48:57.942Z,6.00
2018-05-29T18:50:29.723Z,6.00
2018-05-29T18:52:01.893Z,6.10
2018-05-29T18:53:33.461Z,6.20
2018-05-29T18:55:05.183Z,6.30
2018-05-29T18:58:09.931Z,7.00
2018-05-29T18:59:40.950Z,8.30
2018-05-29T19:01:12.470Z,7.60
2018-05-29T19:02:44.290Z,6.30
2018-05-29T19:04:16.111Z,6.30
2018-05-29T19:05:47.932Z,7.00
2018-05-29T19:07:19.754Z,5.90
2018-05-29T19:08:51.589Z,6.50
2018-05-29T19:10:23.397Z,5.60
2018-05-29T19:11:55.316Z,6.00
2018-05-29T19:14:58.857Z,7.70
2018-05-29T19:16:30.881Z,7.90
2018-05-29T19:18:02.503Z,7.80
2018-05-29T19:19:34.454Z,8.10
2018-05-29T19:21:06.171Z,8.10
2018-05-29T19:22:37.960Z,12.20
2018-05-29T19:24:09.782Z,9.60
2018-05-29T19:25:41.853Z,10.80
2018-05-29T19:27:13.421Z,11.70
2018-05-29T19:28:45.446Z,10.50
2018-05-29T19:30:17.174Z,11.40
2018-05-29T19:31:48.880Z,10.80
2018-05-29T19:33:21.224Z,11.40
2018-05-29T19:34:52.520Z,11.60
2018-05-29T19:36:24.342Z,13.10
2018-05-29T19:37:56.158Z,14.10
2018-05-29T19:39:28.008Z,12.40
2018-05-29T19:41:00.371Z,12.80
2018-05-29T19:44:03.434Z,12.10
2018-05-29T19:45:35.258Z,11.90
2018-05-29T19:47:07.071Z,13.20
2018-05-29T19:48:38.888Z,11.10
2018-05-29T19:50:11.242Z,12.10
2018-05-29T19:51:42.553Z,11.60
2018-05-29T19:53:14.344Z,11.40
2018-05-29T19:54:46.716Z,10.80
2018-05-29T19:56:17.980Z,12.50
2018-05-29T19:57:49.848Z,11.90
2018-05-29T19:59:21.649Z,12.20
2018-05-29T20:00:53.427Z,11.90
2018-05-29T20:02:25.243Z,12.60
2018-05-29T20:03:57.061Z,11.80
2018-05-29T20:05:28.880Z,12.20
2018-05-29T20:07:00.734Z,13.40
2018-05-29T20:08:32.611Z,13.30
2018-05-29T20:10:04.333Z,13.40
2018-05-29T20:11:36.143Z,16.20
2018-05-29T20:13:07.959Z,15.20
2018-05-29T20:14:39.775Z,15.40
2018-05-29T20:16:11.590Z,15.70
2018-05-29T20:17:43.406Z,16.50
2018-05-29T20:19:15.221Z,19.20
2018-05-29T20:20:47.036Z,16.40
2018-05-29T20:22:18.851Z,16.20
2018-05-29T20:23:50.666Z,17.50
2018-05-29T20:25:22.480Z,19.50
2018-05-29T20:26:54.395Z,17.70
2018-05-29T20:28:26.113Z,18.10
2018-05-29T20:29:57.923Z,19.70
2018-05-29T20:31:29.754Z,20.60
2018-05-29T20:33:01.554Z,19.00
2018-05-29T20:34:33.365Z,19.10
2018-05-29T20:36:05.181Z,18.40
2018-05-29T20:37:36.993Z,21.00
2018-05-29T20:39:08.808Z,21.30
2018-05-29T20:40:40.656Z,19.50
2018-05-29T20:42:12.433Z,18.80
2018-05-29T20:43:44.291Z,18.40
2018-05-29T20:45:16.164Z,18.80
2018-05-29T20:46:47.900Z,18.40
2018-05-29T20:48:19.685Z,18.20
2018-05-29T20:49:51.499Z,21.50
2018-05-29T20:51:23.311Z,20.60
2018-05-29T20:52:55.124Z,20.30
2018-05-29T20:54:26.937Z,20.70
2018-05-29T20:55:58.749Z,21.60
2018-05-29T20:57:30.562Z,21.80
2018-05-29T20:59:02.375Z,21.10
2018-05-29T21:00:34.187Z,25.00
2018-05-29T21:02:06.003Z,21.30
2018-05-29T21:03:37.913Z,20.70
2018-05-29T21:05:09.624Z,20.00
2018-05-29T21:06:41.437Z,20.50
2018-05-29T21:08:13.250Z,16.90
2018-05-29T21:09:45.061Z,18.50